Map

Track Data

SID SEASON NUMBER BASIN SUBBASIN NAME ISO_TIME NATURE LAT LON WMO_WIND WMO_PRES WMO_AGENCY TRACK_TYPE DIST2LAND LANDFALL IFLAG USA_AGENCY USA_ATCF_ID USA_LAT USA_LON USA_RECORD USA_STATUS USA_WIND USA_PRES USA_SSHS USA_R34_NE USA_R34_SE USA_R34_SW USA_R34_NW USA_R50_NE USA_R50_SE USA_R50_SW USA_R50_NW USA_R64_NE USA_R64_SE USA_R64_SW USA_R64_NW USA_POCI USA_ROCI USA_RMW USA_EYE TOKYO_LAT TOKYO_LON TOKYO_GRADE TOKYO_WIND TOKYO_PRES TOKYO_R50_DIR TOKYO_R50_LONG TOKYO_R50_SHORT TOKYO_R30_DIR TOKYO_R30_LONG TOKYO_R30_SHORT TOKYO_LAND CMA_LAT CMA_LON CMA_CAT CMA_WIND CMA_PRES HKO_LAT HKO_LON HKO_CAT HKO_WIND HKO_PRES NEWDELHI_LAT NEWDELHI_LON NEWDELHI_GRADE NEWDELHI_WIND NEWDELHI_PRES NEWDELHI_CI NEWDELHI_DP NEWDELHI_POCI REUNION_LAT REUNION_LON REUNION_TYPE REUNION_WIND REUNION_PRES REUNION_TNUM REUNION_CI REUNION_RMW REUNION_R34_NE REUNION_R34_SE REUNION_R34_SW REUNION_R34_NW REUNION_R50_NE REUNION_R50_SE REUNION_R50_SW REUNION_R50_NW REUNION_R64_NE REUNION_R64_SE REUNION_R64_SW REUNION_R64_NW BOM_LAT BOM_LON BOM_TYPE BOM_WIND BOM_PRES BOM_TNUM BOM_CI BOM_RMW BOM_R34_NE BOM_R34_SE BOM_R34_SW BOM_R34_NW BOM_R50_NE BOM_R50_SE BOM_R50_SW BOM_R50_NW BOM_R64_NE BOM_R64_SE BOM_R64_SW BOM_R64_NW BOM_ROCI BOM_POCI BOM_EYE BOM_POS_METHOD BOM_PRES_METHOD NADI_LAT NADI_LON NADI_CAT NADI_WIND NADI_PRES WELLINGTON_LAT WELLINGTON_LON WELLINGTON_WIND WELLINGTON_PRES DS824_LAT DS824_LON DS824_STAGE DS824_WIND DS824_PRES TD9636_LAT TD9636_LON TD9636_STAGE TD9636_WIND TD9636_PRES TD9635_LAT TD9635_LON TD9635_WIND TD9635_PRES TD9635_ROCI NEUMANN_LAT NEUMANN_LON NEUMANN_CLASS NEUMANN_WIND NEUMANN_PRES MLC_LAT MLC_LON MLC_CLASS MLC_WIND MLC_PRES USA_GUST BOM_GUST BOM_GUST_PER REUNION_GUST REUNION_GUST_PER USA_SEAHGT USA_SEARAD_NE USA_SEARAD_SE USA_SEARAD_SW USA_SEARAD_NW STORM_SPEED STORM_DIR
1967252N11211 1967 94 EP CP SARAH 1967-09-08 18:00:00 NR 11.2000 210.800 40 cphc main 1099 1060 O_____________ cphc 11.2000 -149.200 40 0 11 278
1967252N11211 1967 94 EP CP SARAH 1967-09-08 21:00:00 NR 11.2727 210.270 main 1060 1017 P_____________ 11.3001 -149.717 50 -1 11 281
1967252N11211 1967 94 EP CP SARAH 1967-09-09 00:00:00 TS 11.4125 209.700 60 hurdat_epa main 1017 960 O________OO___ hurdat_epa CP011967 11.4000 -150.300 TS 60 0 11.4000 -150.300 TC 60 11.5000 -150.300 2 13 283
1967252N11211 1967 94 EP CP SARAH 1967-09-09 03:00:00 TS 11.5621 208.990 main 960 907 P________PP___ CP011967 11.5123 -150.998 TS 60 0 11.5102 -151.018 TC 60 11.6544 -151.107 2 15 283
1967252N11211 1967 94 EP CP SARAH 1967-09-09 06:00:00 TS 11.7620 208.202 60 hurdat_epa main 897 840 O________OP___ hurdat_epa CP011967 11.7000 -151.800 TS 60 0 11.7000 -151.800 TC 60 11.8261 -151.921 2 17 287
1967252N11211 1967 94 EP CP SARAH 1967-09-09 09:00:00 TS 12.0487 207.322 main 836 764 P________PP___ CP011967 12.0200 -152.685 TS 60 0 12.0200 -152.685 TC 60 12.0348 -152.750 2 19 290
1967252N11211 1967 94 EP CP SARAH 1967-09-09 12:00:00 TS 12.4000 206.417 60 hurdat_epa main 761 707 O________OO___ hurdat_epa CP011967 12.4000 -153.600 TS 60 0 12.4000 -153.600 TC 60 12.3000 -153.600 2 19 292
1967252N11211 1967 94 EP CP SARAH 1967-09-09 15:00:00 TS 12.7441 205.539 main 705 651 P________PP___ CP011967 12.7349 -154.480 TS 60 0 12.7349 -154.480 TC 60 12.6330 -154.473 2 18 293
1967252N11211 1967 94 EP CP SARAH 1967-09-09 18:00:00 TS 13.1188 204.710 60 hurdat_epa main 650 604 O________OP___ hurdat_epa CP011967 13.1000 -155.300 TS 60 0 13.1000 -155.300 TC 60 13.0130 -155.339 2 17 298
1967252N11211 1967 94 EP CP SARAH 1967-09-09 21:00:00 TS 13.5570 203.965 main 594 566 P________PP___ CP011967 13.5646 -156.022 TS 57 0 13.5646 -156.022 TC 57 13.4113 -156.160 2 16 301
1967252N11211 1967 94 EP CP SARAH 1967-09-10 00:00:00 TS 13.9667 203.267 55 hurdat_epa main 558 546 O________OO___ hurdat_epa CP011967 14.0000 -156.700 TS 55 0 14.0000 -156.700 TC 55 13.8000 -156.900 3 15 298
1967252N11211 1967 94 EP CP SARAH 1967-09-10 03:00:00 TS 14.2553 202.595 main 545 545 P________PP___ CP011967 14.2794 -157.363 TS 55 0 14.2794 -157.363 TC 55 14.1494 -157.476 3 14 292
1967252N11211 1967 94 EP CP SARAH 1967-09-10 06:00:00 TS 14.4974 201.888 55 hurdat_epa main 554 554 O________OP___ hurdat_epa CP011967 14.5000 -158.100 TS 55 0 14.5000 -158.100 TC 55 14.4846 -157.974 3 16 288
1967252N11211 1967 94 EP CP SARAH 1967-09-10 09:00:00 TS 14.7516 201.036 main 577 577 P________PP___ CP011967 14.7431 -159.065 TS 55 0 14.7431 -159.065 TC 55 14.8026 -158.460 3 17 288
1967252N11211 1967 94 EP CP SARAH 1967-09-10 12:00:00 TS 15.0167 200.200 55 hurdat_epa main 616 616 O________OO___ hurdat_epa CP011967 15.0000 -160.000 TS 55 0 15.0000 -160.000 TC 55 15.1000 -159.000 4 16 291
1967252N11211 1967 94 EP CP SARAH 1967-09-10 15:00:00 TS 15.3101 199.511 main 647 647 P________PP___ CP011967 15.2844 -160.668 TS 55 0 15.2844 -160.668 TC 55 15.3804 -159.710 4 14 296
1967252N11211 1967 94 EP CP SARAH 1967-09-10 18:00:00 TS 15.6231 198.920 55 hurdat_epa main 676 670 O________OP___ hurdat_epa CP011967 15.6000 -161.200 TS 55 0 15.6000 -161.200 TC 55 15.6386 -160.478 4 13 301
1967252N11211 1967 94 EP CP SARAH 1967-09-10 21:00:00 TS 15.9534 198.382 main 696 681 P________PP___ CP011967 15.9572 -161.708 TS 60 0 15.9572 -161.708 TC 60 15.8773 -161.257 4 12 302
1967252N11211 1967 94 EP CP SARAH 1967-09-11 00:00:00 TS 16.2667 197.867 65 hurdat_epa main 681 677 O________OO___ hurdat_epa CP011967 16.3000 -162.200 HU 65 1 16.3000 -162.200 TC 65 16.1000 -162.000 4 12 299
1967252N11211 1967 94 EP CP SARAH 1967-09-11 03:00:00 TS 16.5162 197.304 main 686 681 P________PP___ CP011967 16.5575 -162.750 HU 65 1 16.5575 -162.750 TC 65 16.3174 -162.652 4 12 294
1967252N11211 1967 94 EP CP SARAH 1967-09-11 06:00:00 TS 16.7535 196.740 65 hurdat_epa main 687 686 O________OP___ hurdat_epa CP011967 16.8000 -163.300 HU 65 1 16.8000 -163.300 TC 65 16.5212 -163.261 4 12 296
1967252N11211 1967 94 EP CP SARAH 1967-09-11 09:00:00 TS 17.0293 196.210 main 698 689 P________PP___ CP011967 17.0923 -163.800 HU 62 0 17.0923 -163.800 TC 62 16.7145 -163.839 4 12 299
1967252N11211 1967 94 EP CP SARAH 1967-09-11 12:00:00 TS 17.3167 195.683 60 hurdat_epa main 705 704 O________OO___ hurdat_epa CP011967 17.4000 -164.300 TS 60 0 17.4000 -164.300 TC 60 16.9000 -164.400 2 12 300
1967252N11211 1967 94 EP CP SARAH 1967-09-11 15:00:00 TS 17.6085 195.143 main 725 718 P________PP___ CP011967 17.7148 -164.835 TS 60 0 17.7148 -164.835 TC 60 17.0772 -164.949 2 12 298
1967252N11211 1967 94 EP CP SARAH 1967-09-11 18:00:00 TS 17.8748 194.586 60 hurdat_epa main 743 743 O________OP___ hurdat_epa CP011967 18.0000 -165.400 TS 60 0 18.0000 -165.400 TC 60 17.2486 -165.486 2 12 295
1967252N11211 1967 94 EP CP SARAH 1967-09-11 21:00:00 TS 18.1010 194.026 main 780 780 P________PP___ CP011967 18.2371 -165.963 TS 57 0 18.2371 -165.963 TC 57 17.4208 -166.030 2 12 289
1967252N11211 1967 94 EP CP SARAH 1967-09-12 00:00:00 TS 18.2667 193.400 55 hurdat_epa main 821 821 O________OO___ hurdat_epa CP011967 18.4000 -166.600 TS 55 0 18.4000 -166.600 TC 55 17.6000 -166.600 2 13 282
1967252N11211 1967 94 EP CP SARAH 1967-09-12 03:00:00 TS 18.3800 192.638 main 889 889 P________PP___ CP011967 18.4878 -167.393 TS 55 0 18.4878 -167.393 TC 55 17.8412 -167.212 2 15 276
1967252N11211 1967 94 EP CP SARAH 1967-09-12 06:00:00 TS 18.4303 191.858 55 hurdat_epa main 954 954 O________OP___ hurdat_epa CP011967 18.5000 -168.200 TS 55 0 18.5000 -168.200 TC 55 18.0819 -167.853 2 14 272
1967252N11211 1967 94 EP CP SARAH 1967-09-12 09:00:00 TS 18.4404 191.180 main 1021 1021 P________PP___ CP011967 18.4721 -168.880 TS 55 0 18.4721 -168.880 TC 55 18.2816 -168.518 2 12 269
1967252N11211 1967 94 EP CP SARAH 1967-09-12 12:00:00 TS 18.4000 190.550 55 hurdat_epa main 1079 1088 O________OO___ hurdat_epa CP011967 18.4000 -169.500 TS 55 0 18.4000 -169.500 TC 55 18.4000 -169.200 2 12 264
1967252N11211 1967 94 EP CP SARAH 1967-09-12 15:00:00 TS 18.3180 189.948 main 1151 1151 P________PP___ CP011967 18.3071 -170.092 TS 55 0 18.3071 -170.092 TC 55 18.3725 -169.851 2 12 261
1967252N11211 1967 94 EP CP SARAH 1967-09-12 18:00:00 TS 18.2109 189.330 55 hurdat_epa main 1214 1214 O________OP___ hurdat_epa CP011967 18.2000 -170.700 TS 55 0 18.2000 -170.700 TC 55 18.2651 -170.520 2 12 259
1967252N11211 1967 94 EP CP SARAH 1967-09-12 21:00:00 TS 18.0913 188.665 main 1277 1277 P________PP___ CP011967 18.0845 -171.355 TS 52 0 18.0845 -171.355 TC 52 18.1253 -171.229 2 14 261
1967252N11211 1967 94 EP CP SARAH 1967-09-13 00:00:00 TS 18.0000 187.917 50 hurdat_epa main 1360 1360 O________OO___ hurdat_epa CP011967 18.0000 -172.100 TS 50 0 18.0000 -172.100 TC 50 18.0000 -172.000 2 15 266
1967252N11211 1967 94 EP CP SARAH 1967-09-13 03:00:00 TS 17.9803 187.063 main 1439 1439 P________PP___ CP011967 17.9849 -172.962 TS 50 0 17.9849 -172.962 TC 50 17.9576 -172.860 2 17 270
1967252N11211 1967 94 EP CP SARAH 1967-09-13 06:00:00 TS 17.9892 186.136 50 hurdat_epa main 1538 1538 O________OP___ hurdat_epa CP011967 18.0000 -173.900 TS 50 0 18.0000 -173.900 TC 50 17.9350 -173.782 2 18 270
1967252N11211 1967 94 EP CP SARAH 1967-09-13 09:00:00 TS 17.9864 185.192 main 1628 1628 P________PP___ CP011967 17.9996 -174.843 TS 52 0 17.9996 -174.843 TC 52 17.9198 -174.738 2 18 270
1967252N11211 1967 94 EP CP SARAH 1967-09-13 12:00:00 TS 17.9833 184.233 55 hurdat_epa main 1729 1729 O________OO___ hurdat_epa CP011967 18.0000 -175.800 TS 55 0 18.0000 -175.800 TC 55 17.9000 -175.700 2 18 270
1967252N11211 1967 94 EP CP SARAH 1967-09-13 15:00:00 TS 17.9744 183.284 main 1820 1820 P________PP___ CP011967 17.9998 -176.765 TS 57 0 17.9998 -176.765 TC 57 17.8480 -176.633 2 18 269
1967252N11211 1967 94 EP CP SARAH 1967-09-13 18:00:00 TS 17.9637 182.349 60 hurdat_epa main 1921 1921 O________OP___ hurdat_epa CP011967 18.0000 -177.700 TS 60 0 18.0000 -177.700 TC 60 17.7912 -177.565 2 17 270
1967252N11211 1967 94 EP CP SARAH 1967-09-13 21:00:00 TS 17.9629 181.477 main 2002 2002 P________PP___ CP011967 18.0141 -178.542 TS 60 0 18.0141 -178.542 TC 60 17.7387 -178.490 2 17 269
1967252N11211 1967 94 EP CP SARAH 1967-09-14 00:00:00 TS 17.9478 180.609 60 hurdat_epa main 2097 2097 OO_O_____OO___ hurdat_epa CP011967 18.0000 -179.400 TS 60 0 18.0000 180.400 7 994 0 0 0 18.0000 181.000 ST 85 960 18.0000 -179.400 TC 60 17.7000 -179.400 2 17 268
1967252N11211 1967 94 WP MM SARAH 1967-09-14 03:00:00 TS 17.8881 179.650 main 2189 2189 PP_P_____PP___ CP011967 17.9078 179.585 TS 65 1 18.0141 179.438 7 982 0 0 18.0004 -179.595 ST 87 955 17.9078 179.585 TC 65 17.6900 179.642 2 18 266
1967252N11211 1967 94 WP MM SARAH 1967-09-14 06:00:00 TS 17.8361 178.764 970 tokyo main 2283 2283 OOOO_____OP___ hurdat_epa CP011967 17.8000 178.600 HU 70 1 18.0000 178.700 9 970 0 0 0 18.0000 178.700 3 58 970 18.0000 179.800 ST 90 950 17.8000 -181.400 TC 70 17.6933 178.709 2 15 267
1967252N11211 1967 94 WP MM SARAH 1967-09-14 09:00:00 TS 17.8116 178.080 main 2355 2355 PPPP_____PP___ CP011967 17.7422 177.768 HU 75 1 17.9491 178.312 9 965 0 0 17.9399 178.397 3 58 965 17.9997 179.172 ST 92 945 17.7422 177.768 TC 75 17.6998 177.845 2 11 269
1967252N11211 1967 94 WP MM SARAH 1967-09-14 12:00:00 TS 17.8086 177.600 960 tokyo main 2406 2406 OOOO_____OOO__ hurdat_epa CP011967 17.7000 177.100 HU 80 1 17.9000 178.000 9 960 0 0 0 17.9000 178.000 3 58 960 18.0000 178.500 ST 95 940 17.7000 -182.900 TC 80 17.7000 177.100 2 18.0000 178.500 110 940 120 9 269
1967252N11211 1967 94 WP MM SARAH 1967-09-14 15:00:00 TS 17.7989 177.113 main 2457 2457 PPPP_____PPP__ CP011967 17.6420 176.605 HU 85 2 17.8925 177.445 9 955 0 0 17.8925 177.445 3 63 955 17.9999 177.765 ST 97 935 17.6420 176.605 TC 85 17.6509 176.560 2 18.0031 177.748 112 937 150 10 269
1967252N11211 1967 94 WP MM SARAH 1967-09-14 18:00:00 TS 17.7957 176.593 950 tokyo main 2508 2508 OOOO_____OPO__ hurdat_epa CP011967 17.6000 176.200 HU 90 2 17.9000 176.800 9 950 0 0 0 17.9000 176.800 4 68 950 18.0000 177.000 SuperT 100 930 17.6000 -183.800 TC 90 17.6014 176.132 2 18.0000 177.000 115 935 180 10 270
1967252N11211 1967 94 WP MM SARAH 1967-09-14 21:00:00 TS 17.7940 176.035 main 2570 2570 PPPP_____PPP__ CP011967 17.5697 175.772 HU 95 2 17.8849 176.157 9 940 0 0 17.8847 176.172 4 82 940 17.9847 176.250 SuperT 100 930 17.5697 175.772 TC 95 17.5763 175.738 2 17.9921 176.257 117 933 210 11 271
1967252N11211 1967 94 WP MM SARAH 1967-09-15 00:00:00 TS 17.8167 175.417 930 tokyo main 2631 2631 OOOO_____OOO__ hurdat_epa CP011967 17.6000 175.300 HU 100 3 17.9000 175.500 9 930 0 0 0 17.9000 175.500 5 97 931 18.0000 175.500 SuperT 100 930 17.6000 -184.700 TC 100 17.6000 175.300 3 18.0000 175.500 120 932 240 12 275
1967252N11211 1967 94 WP MM SARAH 1967-09-15 03:00:00 TS 17.8981 174.741 main 2700 2700 PPPP_____PPP__ CP011967 17.7274 174.738 HU 100 3 17.9695 174.872 9 932 0 0 17.9700 174.750 5 97 931 18.0772 174.750 SuperT 100 930 17.7274 174.738 TC 100 17.6951 174.736 3 18.0124 174.692 122 933 240 13 279
1967252N11211 1967 94 WP MM SARAH 1967-09-15 06:00:00 TS 18.0346 174.036 934 tokyo main 2770 2767 OOOO_____OPO__ hurdat_epa CP011967 17.9000 174.100 HU 100 3 18.1000 174.200 9 934 0 0 0 18.1000 174.000 5 97 931 18.2000 174.000 SuperT 100 930 17.9000 -185.900 TC 100 17.8391 174.112 3 18.1000 173.900 125 934 240 14 283
1967252N11211 1967 94 WP MM SARAH 1967-09-15 09:00:00 TS 18.2120 173.335 main 2836 2836 PPPP_____PPP__ CP011967 18.0422 173.430 HU 100 3 18.2851 173.408 9 935 0 0 18.2843 173.365 5 101 931 18.3422 173.250 SuperT 100 930 18.0422 173.430 TC 100 18.0135 173.433 3 18.3345 173.193 125 934 240 14 285
1967252N11211 1967 94 WP MM SARAH 1967-09-15 12:00:00 TS 18.4083 172.608 936 tokyo main 2903 2903 OOOO_____OOO__ hurdat_epa CP011967 18.2000 172.700 HU 100 3 18.5000 172.600 9 936 0 0 0 18.5000 172.700 6 106 931 18.5000 172.500 SuperT 100 930 18.2000 -187.300 TC 100 18.2000 172.700 4 18.6000 172.500 125 935 240 15 285
1967252N11211 1967 94 WP MM SARAH 1967-09-15 15:00:00 TS 18.5944 171.851 main 2971 2971 PPPP_____PPP__ CP011967 18.3998 171.923 HU 105 3 18.7213 171.945 9 936 0 0 18.7300 171.880 6 106 935 18.6572 171.750 SuperT 100 932 18.3998 171.923 TC 105 18.3799 171.926 4 18.7871 171.772 125 936 240 15 283
1967252N11211 1967 94 WP MM SARAH 1967-09-15 18:00:00 TS 18.7512 171.050 936 tokyo main 3048 3048 OOOO_____OPO__ hurdat_epa CP011967 18.6000 171.100 HU 110 3 18.9000 171.200 9 936 0 0 0 18.9000 171.000 6 106 939 18.8000 171.000 SuperT 100 935 18.6000 -188.900 TC 110 18.5648 171.103 4 18.9000 171.000 125 937 240 16 279
1967252N11211 1967 94 WP MM SARAH 1967-09-15 21:00:00 TS 18.8446 170.190 main 3141 3132 PPPP_____PPP__ CP011967 18.7648 170.250 HU 115 4 18.9738 170.092 9 935 0 0 18.9147 170.142 6 111 938 18.9072 170.250 SuperT 97 937 18.7648 170.250 TC 115 18.7422 170.254 4 18.9075 170.149 125 937 210 16 276
1967252N11211 1967 94 WP MM SARAH 1967-09-16 00:00:00 TS 18.9167 169.333 935 tokyo main 3125 3088 OOOO_____OOO__ hurdat_epa CP011967 18.9000 169.400 HU 120 4 19.0000 169.000 9 935 0 0 0 18.9000 169.300 6 116 938 19.0000 169.500 ST 95 940 18.9000 -190.600 TC 120 18.9000 169.400 4 18.9000 169.300 125 938 180 16 276
1967252N11211 1967 94 WP MM SARAH 1967-09-16 03:00:00 TS 19.0050 168.551 main 3088 3047 PPPP_____PPP__ CP011967 19.0070 168.600 HU 120 4 19.0337 168.297 9 935 0 0 18.9697 168.485 6 116 936 19.0922 168.750 ST 97 937 19.0070 168.600 TC 120 19.0011 168.541 4 18.9695 168.535 125 936 180 15 278
1967252N11211 1967 94 WP MM SARAH 1967-09-16 06:00:00 TS 19.1134 167.789 935 tokyo main 3047 3007 OOOO_____OPO__ hurdat_epa CP011967 19.1000 167.800 HU 120 4 19.1000 167.700 9 935 0 0 0 19.1000 167.700 6 116 934 19.2000 168.000 SuperT 100 935 19.1000 -192.200 TC 120 19.0850 167.688 4 19.1000 167.800 125 935 180 15 279
1967252N11211 1967 94 WP MM SARAH 1967-09-16 09:00:00 TS 19.2449 166.993 main 3007 2985 PPPP_____PPP__ CP011967 19.1776 166.927 HU 125 4 19.2274 166.965 9 937 0 0 19.2921 166.943 6 116 936 19.3422 167.250 SuperT 100 935 19.1776 166.927 TC 125 19.1763 166.866 4 19.2847 167.050 122 937 210 15 281
1967252N11211 1967 94 WP MM SARAH 1967-09-16 12:00:00 TS 19.4083 166.217 940 tokyo main 2979 2958 OOOO_____OOO__ hurdat_epa CP011967 19.3000 166.100 HU 130 933 4 19.4000 166.200 9 940 0 0 0 19.5000 166.200 6 116 939 19.5000 166.500 SuperT 100 935 19.3000 -193.900 TC 130 933 19.3000 166.100 4 19.5000 166.300 120 939 240 15 285
1967252N11211 1967 94 WP MM SARAH 1967-09-16 15:00:00 TS 19.6171 165.488 main 2958 2930 PPPP_____PPP__ CP011967 19.5345 165.413 HU 125 4 19.6074 165.428 9 942 0 0 19.6649 165.427 6 116 941 19.6572 165.750 SuperT 97 937 19.5345 165.413 TC 125 19.5195 165.431 4 19.7148 165.543 120 941 240 14 287
1967252N11211 1967 94 WP MM SARAH 1967-09-16 18:00:00 TS 19.8262 164.802 945 tokyo main 2930 2869 OOOO_____OPO__ hurdat_epa CP011967 19.8000 164.800 HU 120 4 19.8000 164.700 9 945 0 0 0 19.8000 164.700 6 116 943 19.8000 165.000 ST 95 940 19.8000 -195.200 TC 120 19.7698 164.814 4 19.9000 164.800 120 943 240 13 287
1967252N11211 1967 94 WP MM SARAH 1967-09-16 21:00:00 TS 19.9987 164.152 main 2869 2807 PPPP_____PPP__ CP011967 20.0295 164.215 HU 115 4 19.9294 164.092 9 944 0 0 19.9220 164.085 6 116 943 19.9224 164.235 ST 95 940 20.0295 164.215 TC 115 20.0103 164.215 4 20.0297 164.085 117 942 240 13 283
1967252N11211 1967 94 WP MM SARAH 1967-09-17 00:00:00 TS 20.1167 163.508 944 tokyo main 2807 2747 OOOO_____OOO__ hurdat_epa CP011967 20.2000 163.600 HU 110 3 20.0000 163.500 9 944 0 0 0 20.0000 163.500 6 116 943 20.0000 163.500 ST 95 940 20.2000 -196.400 TC 110 20.2000 163.600 4 20.1000 163.400 115 942 240 13 277
1967252N11211 1967 94 WP MM SARAH 1967-09-17 03:00:00 TS 20.1614 162.808 main 2747 2702 PPPP_____PPP__ CP011967 20.2801 162.857 HU 110 3 20.0076 162.800 9 942 0 0 20.0073 162.857 6 116 940 20.0147 162.827 ST 95 940 20.2801 162.857 TC 110 20.2956 162.864 4 20.1148 162.727 115 939 240 13 272
1967252N11211 1967 94 WP MM SARAH 1967-09-17 06:00:00 TS 20.1655 162.118 940 tokyo main 2694 2650 OOOO_____OPO__ hurdat_epa CP011967 20.3000 162.100 HU 110 3 20.0000 162.100 9 940 0 0 0 20.0000 162.200 6 116 937 20.0000 162.200 ST 95 940 20.3000 -197.900 TC 110 20.3339 162.117 4 20.1000 162.100 115 937 240 13 271
1967252N11211 1967 94 WP MM SARAH 1967-09-17 09:00:00 TS 20.1786 161.469 main 2650 2606 PPPP_____PPP__ CP011967 20.3149 161.397 HU 110 3 20.0499 161.455 9 941 0 0 20.0501 161.513 6 116 936 19.9999 161.578 ST 97 937 20.3149 161.397 TC 110 20.3301 161.411 4 20.1073 161.520 115 936 270 11 270
1967252N11211 1967 94 WP MM SARAH 1967-09-17 12:00:00 TS 20.1750 160.900 942 tokyo main 2606 2577 OOOO_____OOO__ hurdat_epa CP011967 20.3000 160.800 HU 110 3 20.1000 160.900 9 942 0 0 0 20.1000 160.900 6 116 936 20.0000 161.000 SuperT 100 935 20.3000 -199.200 TC 110 20.3000 160.800 4 20.1000 161.000 115 936 300 10 268
1967252N11211 1967 94 WP MM SARAH 1967-09-17 15:00:00 TS 20.1459 160.434 main 2578 2556 PPPP_____PPP__ CP011967 20.2572 160.347 HU 110 3 20.1147 160.462 9 944 0 0 20.1146 160.455 6 116 939 19.9998 160.470 SuperT 97 937 20.2572 160.347 TC 110 20.2660 160.341 4 20.0499 160.520 112 939 330 8 265
1967252N11211 1967 94 WP MM SARAH 1967-09-17 18:00:00 TS 20.1052 160.049 946 tokyo main 2549 2528 OOOO_____OPO__ hurdat_epa CP011967 20.2000 160.000 HU 110 3 20.1000 160.100 9 946 0 0 0 20.1000 160.100 6 116 943 20.0000 160.000 ST 95 940 20.2000 -200.000 TC 110 20.2132 159.980 4 20.0000 160.100 110 943 360 7 264
1967252N11211 1967 94 WP MM SARAH 1967-09-17 21:00:00 TS 20.0728 159.700 main 2528 2514 PPPP_____PPP__ CP011967 20.1499 159.685 HU 105 3 20.0499 159.742 9 946 0 0 20.0499 159.742 6 106 944 19.9999 159.570 ST 95 945 20.1499 159.685 TC 105 20.1539 159.679 4 19.9999 159.728 110 945 330 6 264
1967252N11211 1967 94 WP MM SARAH 1967-09-18 00:00:00 TS 20.0417 159.383 946 tokyo main 2515 2494 OOOO_____OOO__ hurdat_epa CP011967 20.1000 159.400 HU 100 3 20.0000 159.400 9 946 0 0 0 20.0000 159.400 5 97 946 20.0000 159.200 ST 95 950 20.1000 -200.600 TC 100 20.1000 159.400 4 20.0000 159.400 110 947 300 6 263
1967252N11211 1967 94 WP MM SARAH 1967-09-18 03:00:00 TS 19.9974 159.066 main 2494 2473 PPPP_____PPP__ CP011967 20.0424 159.100 HU 100 3 19.9925 159.043 9 946 0 0 19.9925 159.043 5 97 946 19.9999 158.885 ST 95 947 20.0424 159.100 TC 100 20.0310 159.085 4 19.9424 159.092 110 946 300 6 263
1967252N11211 1967 94 WP MM SARAH 1967-09-18 06:00:00 TS 19.9666 158.762 946 tokyo main 2473 2459 OOOO_____OPO__ hurdat_epa CP011967 20.0000 158.800 HU 100 3 20.0000 158.700 9 946 0 0 0 20.0000 158.700 5 97 946 20.0000 158.600 ST 95 945 20.0000 -201.200 TC 100 19.9746 158.784 4 19.9000 158.800 110 946 300 6 265
1967252N11211 1967 94 WP MM SARAH 1967-09-18 09:00:00 TS 19.9505 158.462 main 2452 2431 PPPP_____PPP__ CP011967 19.9699 158.500 HU 100 3 19.9699 158.392 9 947 0 0 19.9699 158.392 5 97 946 19.9624 158.300 ST 92 945 19.9699 158.500 TC 100 19.9560 158.491 4 19.9125 158.500 105 946 300 6 273
1967252N11211 1967 94 WP MM SARAH 1967-09-18 12:00:00 TS 20.0000 158.167 948 tokyo main 2431 2402 OOOO_____OOO__ hurdat_epa CP011967 20.0000 158.200 HU 100 3 20.0000 158.100 9 948 0 0 0 20.0000 158.100 5 97 946 20.0000 158.000 ST 90 945 20.0000 -201.800 TC 100 20.0000 158.200 4 20.0000 158.200 100 946 300 6 289
1967252N11211 1967 94 WP MM SARAH 1967-09-18 15:00:00 TS 20.1456 157.863 main 2402 2364 PPPP_____PPP__ CP011967 20.1124 157.900 HU 100 3 20.1625 157.785 9 949 0 0 20.1625 157.785 5 97 948 20.2275 157.685 ST 90 947 20.1124 157.900 TC 100 20.1067 157.900 4 20.1700 157.885 100 947 300 7 303
1967252N11211 1967 94 WP MM SARAH 1967-09-18 18:00:00 TS 20.3585 157.576 950 tokyo main 2356 2318 OOOO_____OPO__ hurdat_epa CP011967 20.3000 157.600 HU 100 3 20.4000 157.500 9 950 0 0 0 20.4000 157.500 5 97 950 20.5000 157.400 ST 90 950 20.3000 -202.400 TC 100 20.2798 157.600 4 20.4000 157.600 100 949 300 7 311
1967252N11211 1967 94 WP MM SARAH 1967-09-18 21:00:00 TS 20.5787 157.331 main 2318 2288 PPPP_____PPP__ CP011967 20.5275 157.300 HU 95 2 20.6198 157.307 9 952 0 0 20.6199 157.300 5 97 952 20.6198 157.207 ST 90 952 20.5275 157.300 TC 95 20.5130 157.300 4 20.6274 157.400 100 951 270 7 317
1967252N11211 1967 94 WP MM SARAH 1967-09-19 00:00:00 TS 20.8500 157.083 954 tokyo main 2279 2242 OOOO_____OOO__ hurdat_epa CP011967 20.8000 157.000 HU 90 2 20.9000 157.100 9 954 0 0 0 20.9000 157.100 5 97 954 20.8000 157.000 ST 90 955 20.8000 -203.000 TC 90 20.8000 157.000 4 20.9000 157.200 100 954 240 8 319
1967252N11211 1967 94 WP MM SARAH 1967-09-19 03:00:00 TS 21.1621 156.794 main 2234 2188 PPPP_____PPP__ CP011967 21.0700 156.700 HU 90 2 21.2626 156.772 9 955 0 0 21.2624 156.830 5 97 955 21.2050 156.680 ST 90 957 21.0700 156.700 TC 90 21.0669 156.750 4 21.2125 156.922 100 955 210 9 321
1967252N11211 1967 94 WP MM SARAH 1967-09-19 06:00:00 TS 21.5427 156.478 957 tokyo main 2188 2134 OOOO_____OPO__ hurdat_epa CP011967 21.4000 156.400 HU 90 2 21.7000 156.400 9 957 0 0 0 21.7000 156.500 5 97 957 21.7000 156.300 ST 90 960 21.4000 -203.600 TC 90 21.3911 156.493 4 21.6000 156.600 100 957 180 10 324
1967252N11211 1967 94 WP MM SARAH 1967-09-19 09:00:00 TS 21.9712 156.168 main 2126 2057 PPPP_____PPP__ CP011967 21.7896 156.144 HU 90 2 22.1622 156.079 9 958 0 0 22.1625 156.122 5 97 957 22.1349 155.915 ST 87 960 21.7896 156.144 TC 90 21.7947 156.190 4 22.0548 156.279 97 957 180 11 326
1967252N11211 1967 94 WP MM SARAH 1967-09-19 12:00:00 TS 22.4917 155.792 960 tokyo main 2057 1973 OOOO_____OOO__ hurdat_epa CP011967 22.3000 155.800 HU 90 2 22.7000 155.700 9 960 0 0 0 22.7000 155.700 5 97 958 22.6000 155.500 ST 85 960 22.3000 -204.200 TC 90 22.3000 155.800 4 22.6000 155.900 95 958 180 14 325
1967252N11211 1967 94 WP MM SARAH 1967-09-19 15:00:00 TS 23.1190 155.291 main 1973 1874 PPPP_____PPP__ CP011967 22.9551 155.253 HU 90 2 23.3352 155.165 9 961 0 0 23.3348 155.272 5 97 958 23.1199 155.065 ST 82 960 22.9551 155.253 TC 90 22.9416 155.263 4 23.2274 155.437 92 959 180 17 323
1967252N11211 1967 94 WP MM SARAH 1967-09-19 18:00:00 TS 23.8104 154.715 962 tokyo main 1874 1776 OOOO_____OPO__ hurdat_epa CP011967 23.7000 154.600 HU 90 2 24.0000 154.600 9 962 0 0 0 24.0000 154.800 5 97 959 23.7000 154.600 T 80 960 23.7000 -205.400 TC 90 23.6765 154.636 4 23.9000 154.900 90 960 180 18 322
1967252N11211 1967 94 WP MM SARAH 1967-09-19 21:00:00 TS 24.5069 154.101 main 1776 1693 PPPP_____PPP__ CP011967 24.4653 153.906 HU 85 2 24.6147 154.134 9 965 0 0 24.6227 154.235 5 87 961 24.3348 154.115 T 77 962 24.4653 153.906 TC 85 24.4479 153.965 4 24.5577 154.293 87 963 150 18 322
1967252N11211 1967 94 WP MM SARAH 1967-09-20 00:00:00 TS 25.1833 153.525 968 tokyo main 1677 1602 OOOO_____OOO__ hurdat_epa CP011967 25.2000 153.300 HU 80 1 25.2000 153.700 9 968 0 0 0 25.2000 153.700 4 77 964 25.0000 153.600 T 75 965 25.2000 -206.700 TC 80 25.2000 153.300 4 25.2000 153.700 85 967 120 16 324
1967252N11211 1967 94 WP MM SARAH 1967-09-20 03:00:00 TS 25.7940 153.081 main 1602 1534 PPPP_____PPP__ CP011967 25.8219 152.946 HU 80 1 25.7651 153.220 9 969 0 0 25.7071 153.327 4 77 966 25.6726 153.035 T 72 967 25.8219 152.946 TC 80 25.8652 152.693 4 25.8071 153.227 82 968 120 14 328
1967252N11211 1967 94 WP MM SARAH 1967-09-20 06:00:00 TS 26.3756 152.700 970 tokyo main 1526 1465 OOOO_____OPO__ hurdat_epa CP011967 26.4000 152.700 HU 80 1 26.3000 152.800 9 970 0 0 0 26.2000 153.000 4 77 969 26.3000 152.500 T 70 970 26.4000 -207.300 TC 80 26.5017 152.103 4 26.4000 152.800 80 969 120 13 330
1967252N11211 1967 94 WP MM SARAH 1967-09-20 09:00:00 TS 26.9554 152.344 main 1450 1390 PPPP_____PPP__ CP011967 27.0068 152.466 HU 80 1 26.7844 152.563 9 969 0 0 26.7347 152.629 4 77 968 26.8069 152.099 T 67 970 27.0068 152.466 TC 80 27.1123 151.537 4 26.9998 152.357 77 968 150 13 329
1967252N11211 1967 94 WP MM SARAH 1967-09-20 12:00:00 TS 27.5333 151.933 968 tokyo main 1383 1301 OOOO_____OOO__ hurdat_epa CP011967 27.6000 152.100 HU 80 1 27.3000 152.300 9 968 0 0 0 27.3000 152.200 4 77 967 27.3000 151.700 T 65 970 27.6000 -207.900 TC 80 27.7000 151.000 4 27.6000 151.900 75 967 180 14 323
1967252N11211 1967 94 WP MM SARAH 1967-09-20 15:00:00 TS 28.1061 151.362 main 1301 1212 PPPP_____PPP__ CP011967 28.1505 151.417 HU 80 1 27.9201 151.803 9 967 0 0 27.8699 151.687 4 77 966 27.8625 151.172 T 65 967 28.1505 151.417 TC 80 28.2433 150.427 4 28.1922 151.422 72 966 180 16 317
1967252N11211 1967 94 WP MM SARAH 1967-09-20 18:00:00 TS 28.6981 150.718 966 tokyo main 1205 1117 OOOO_____OPO__ hurdat_epa CP011967 28.7000 150.600 HU 80 1 28.6000 151.200 9 966 0 0 0 28.5000 151.100 4 77 965 28.5000 150.600 T 65 965 28.7000 -209.400 TC 80 28.7704 149.893 4 28.8000 150.900 70 965 180 17 317
1967252N11211 1967 94 WP MM SARAH 1967-09-20 21:00:00 TS 29.3275 150.047 main 1110 1022 PPPP_____PPP__ CP011967 29.2855 149.776 HU 75 1 29.2775 150.592 9 965 0 0 29.2279 150.428 4 77 964 29.2277 150.006 T 65 965 29.2855 149.776 TC 75 29.3122 149.437 4 29.4354 150.278 70 964 180 17 320
1967252N11211 1967 94 WP MM SARAH 1967-09-21 00:00:00 TS 29.9917 149.467 964 tokyo main 1022 950 OOOO_____OOO__ hurdat_epa CP011967 29.9000 149.100 HU 70 1 30.0000 150.000 9 964 0 0 0 30.0000 149.800 4 77 964 30.0000 149.500 T 65 965 29.9000 -210.900 TC 70 29.9000 149.100 4 30.1000 149.700 70 964 180 16 327
1967252N11211 1967 94 WP MM SARAH 1967-09-21 03:00:00 TS 30.6714 149.055 main 943 887 PPPP_____PPP__ CP011967 30.5193 148.715 HU 70 1 30.8002 149.411 9 965 0 0 30.7498 149.303 4 77 964 30.7572 149.174 T 65 965 30.5193 148.715 TC 70 30.5446 148.833 4 30.7773 149.260 72 964 180 15 339
1967252N11211 1967 94 WP MM SARAH 1967-09-21 06:00:00 TS 31.3894 148.844 966 tokyo main 873 830 OOOO_____OPO__ hurdat_epa CP011967 31.2000 148.600 HU 70 1 31.6000 149.000 9 966 0 0 0 31.5000 149.000 4 77 964 31.5000 149.000 T 65 965 31.2000 -211.400 TC 70 31.2426 148.698 4 31.5000 149.000 75 964 180 15 351
1967252N11211 1967 94 WP MM SARAH 1967-09-21 09:00:00 TS 32.1404 148.792 main 830 796 PPPP_____PPP__ CP011967 31.9698 148.652 HU 70 1 32.2919 148.865 9 968 0 0 32.2196 148.880 4 77 966 32.1698 148.861 T 65 967 31.9698 148.652 TC 70 31.9943 148.714 4 32.2771 148.888 72 966 270 16 3
1967252N11211 1967 94 WP MM SARAH 1967-09-21 12:00:00 TS 32.9417 148.950 970 tokyo main 805 787 OOOO_____OOO__ hurdat_epa CP011967 32.8000 148.900 HU 70 1 33.0000 149.000 9 970 0 0 0 33.0000 149.000 4 77 968 32.9000 148.900 T 65 970 32.8000 -211.100 TC 70 32.8000 148.900 4 33.1000 149.000 70 968 360 17 13
1967252N11211 1967 94 WP MM SARAH 1967-09-21 15:00:00 TS 33.7919 149.255 main 794 787 PPPP_____PPP__ CP011967 33.6271 149.219 HU 70 1 33.8120 149.281 9 972 0 0 33.9422 149.295 4 72 970 33.8271 149.138 T 62 967 33.6271 149.219 TC 70 33.6568 149.267 4 33.9422 149.295 70 968 270 19 21
1967252N11211 1967 94 WP MM SARAH 1967-09-21 18:00:00 TS 34.6950 149.753 974 tokyo main 814 812 OOOO_____OPO__ hurdat_epa CP011967 34.5000 149.700 HU 70 1 34.7000 149.800 9 974 0 0 0 34.9000 149.800 4 68 973 34.8000 149.600 STS 60 965 34.5000 -210.300 TC 70 34.5523 149.785 4 34.8000 149.800 70 968 180 20 27
1967252N11211 1967 94 WP MM SARAH 1967-09-21 21:00:00 TS 35.6042 150.396 main 843 839 PPPP_____PPP__ CP011967 35.4419 150.311 HU 70 1 35.6652 150.524 9 975 0 0 35.7219 150.412 4 68 975 35.6801 150.233 STS 57 967 35.4337 150.348 TC 70 35.4716 150.411 4 35.6495 150.419 67 969 150 21 33
1967252N11211 1967 94 WP MM SARAH 1967-09-22 00:00:00 TS 36.4966 151.183 977 tokyo main 861 850 OOOO_____OOO__ hurdat_epa CP011967 36.4000 151.100 HU 70 1 36.6000 151.400 9 977 0 0 0 36.5000 151.200 4 68 977 36.5000 151.000 STS 55 970 36.4000 -208.900 TC 70 36.4000 151.100 4 36.5000 151.200 65 970 120 22 37
1967252N11211 1967 94 WP MM SARAH 1967-09-22 03:00:00 TS 37.3503 152.010 main 847 841 PPPP_______P__ CP011967 37.3629 151.915 HU 65 1 37.3856 152.229 9 977 0 0 37.3065 152.112 4 68 977 37.2633 151.728 STS 55 975 TC 4 37.3518 152.110 62 974 90 22 42
1967252N11211 1967 94 WP MM SARAH 1967-09-22 06:00:00 TS 38.1300 153.065 978 tokyo main 854 846 OOOO_______O__ jtwc_wp WP251967 38.2000 153.100 60 -1 38.1000 153.200 9 978 0 0 0 38.1000 153.200 4 68 978 38.0000 152.600 STS 55 980 4 38.2000 153.100 60 979 60 25 54
1967252N11211 1967 94 WP MM SARAH 1967-09-22 09:00:00 TS 38.8442 154.609 main 856 848 PPPP__________ WP251967 38.8360 155.046 55 -1 38.8512 154.395 9 979 0 0 38.9158 154.409 4 63 979 38.7487 153.718 STS 52 982 4 28 64
1967252N11211 1967 94 WP MM SARAH 1967-09-22 12:00:00 MX 39.3824 156.318 980 tokyo main 874 874 OOOO__________ jtwc_wp WP251967 39.2000 157.000 50 -1 39.5000 155.800 6 980 0 0 0 39.6000 155.800 3 58 980 39.5000 155.000 STS 50 985 25 71
1967252N11211 1967 94 WP MM SARAH 1967-09-22 15:00:00 MX 39.6553 157.611 main 917 917 PPP___________ WP251967 39.3365 157.996 45 -1 39.9454 157.226 6 985 0 0 40.0028 157.227 3 985 STS 21 77
1967252N11211 1967 94 WP MM SARAH 1967-09-22 18:00:00 MX 39.8714 159.000 990 tokyo main 977 977 OOO___________ jtwc_wp WP251967 39.3000 159.000 40 -1 40.3000 159.000 6 990 0 0 0 40.3000 159.000 9 990 28 79
1967252N11211 1967 94 WP MM SARAH 1967-09-22 21:00:00 MX 40.2030 161.208 main 1090 1090 PPP___________ WP251967 39.1830 160.754 35 -1 40.7167 161.435 6 993 0 0 40.7092 161.434 9 993 37 79
1967252N11211 1967 94 WP MM SARAH 1967-09-23 00:00:00 MX 40.6000 163.800 996 tokyo main 1229 1229 OOO___________ jtwc_wp WP251967 39.0000 163.000 30 -1 41.0000 164.000 6 996 0 0 0 41.0000 164.000 9 996 37 76
1967252N11211 1967 94 WP MM SARAH 1967-09-23 03:00:00 ET 41.1103 165.922 main 1271 1271 _PP___________ WP251967 -1 41.1103 165.922 6 997 0 0 41.1103 165.922 9 996 32 83
1967252N11211 1967 94 WP MM SARAH 1967-09-23 06:00:00 ET 41.0000 168.000 998 tokyo main 1383 1383 _OO___________ -1 41.0000 168.000 6 998 0 0 0 41.0000 168.000 9 996 38 98
1967252N11211 1967 94 WP MM SARAH 1967-09-23 09:00:00 ET 40.5771 170.858 main 1573 1573 _PP___________ -1 40.5771 170.858 6 997 0 0 40.5771 170.858 9 996 47 102
1967252N11211 1967 94 WP MM SARAH 1967-09-23 12:00:00 ET 40.0000 174.000 996 tokyo main 1782 1782 _OO___________ -1 40.0000 174.000 6 996 0 0 0 40.0000 174.000 9 996 49 103
1967252N11211 1967 94 WP MM SARAH 1967-09-23 15:00:00 ET 39.4851 177.050 main 1832 1761 _PP___________ -1 39.4851 177.050 6 996 0 0 39.4851 177.050 9 996 47 102
1967252N11211 1967 94 EP CP SARAH 1967-09-23 18:00:00 ET 39.0000 180.000 996 tokyo main 1760 _OO___________ -1 39.0000 180.000 6 996 0 0 0 39.0000 180.000 9 996 47 102

About IBTrACS Database

This database is a web-friendly format of International Best Track Archive for Climate Stewardship (IBTrACS), a global best track data archive curated by NOAA dating back to 1842.

Updated: 2021-12-06